sensor_id;sensor_type;location;lat;lon;timestamp;P1;P2;P0
69123;PMS5003;56232;53.384;-2.732;2023-11-19T00:00:20;9;6;
69123;PMS5003;56232;53.384;-2.732;2023-11-19T00:02:45;10;7;
69123;PMS5003;56232;53.384;-2.732;2023-11-19T00:05:11;10;6;
69123;PMS5003;56232;53.384;-2.732;2023-11-19T00:07:36;9;6;
69123;PMS5003;56232;53.384;-2.732;2023-11-19T00:10:02;5;4;
69123;PMS5003;56232;53.384;-2.732;2023-11-19T00:12:27;8;4;
69123;PMS5003;56232;53.384;-2.732;2023-11-19T00:14:52;9;7;
69123;PMS5003;56232;53.384;-2.732;2023-11-19T00:17:18;3;2;
69123;PMS5003;56232;53.384;-2.732;2023-11-19T00:19:43;6;3;
69123;PMS5003;56232;53.384;-2.732;2023-11-19T00:22:09;7;5;
69123;PMS5003;56232;53.384;-2.732;2023-11-19T00:24:35;7;5;
69123;PMS5003;56232;53.384;-2.732;2023-11-19T00:27:00;4;3;
69123;PMS5003;56232;53.384;-2.732;2023-11-19T00:29:26;7;5;
69123;PMS5003;56232;53.384;-2.732;2023-11-19T00:31:51;3;3;
69123;PMS5003;56232;53.384;-2.732;2023-11-19T00:34:16;4;3;
69123;PMS5003;56232;53.384;-2.732;2023-11-19T00:36:41;9;4;
69123;PMS5003;56232;53.384;-2.732;2023-11-19T00:39:07;7;4;
69123;PMS5003;56232;53.384;-2.732;2023-11-19T00:41:33;8;3;
69123;PMS5003;56232;53.384;-2.732;2023-11-19T00:43:58;6;5;
69123;PMS5003;56232;53.384;-2.732;2023-11-19T00:46:23;5;3;
69123;PMS5003;56232;53.384;-2.732;2023-11-19T00:48:49;7;4;
69123;PMS5003;56232;53.384;-2.732;2023-11-19T00:51:15;6;3;
69123;PMS5003;56232;53.384;-2.732;2023-11-19T00:53:40;6;4;
69123;PMS5003;56232;53.384;-2.732;2023-11-19T00:56:06;6;4;
69123;PMS5003;56232;53.384;-2.732;2023-11-19T00:58:31;3;3;
69123;PMS5003;56232;53.384;-2.732;2023-11-19T01:00:57;6;4;
69123;PMS5003;56232;53.384;-2.732;2023-11-19T01:03:22;4;4;
69123;PMS5003;56232;53.384;-2.732;2023-11-19T01:05:47;5;4;
69123;PMS5003;56232;53.384;-2.732;2023-11-19T01:08:13;6;4;
69123;PMS5003;56232;53.384;-2.732;2023-11-19T01:10:39;3;2;
69123;PMS5003;56232;53.384;-2.732;2023-11-19T01:13:03;7;5;
69123;PMS5003;56232;53.384;-2.732;2023-11-19T01:15:29;8;5;
69123;PMS5003;56232;53.384;-2.732;2023-11-19T01:17:54;6;4;
69123;PMS5003;56232;53.384;-2.732;2023-11-19T01:20:19;12;7;
69123;PMS5003;56232;53.384;-2.732;2023-11-19T01:22:45;7;4;
69123;PMS5003;56232;53.384;-2.732;2023-11-19T01:25:10;6;5;
69123;PMS5003;56232;53.384;-2.732;2023-11-19T01:27:36;7;3;
69123;PMS5003;56232;53.384;-2.732;2023-11-19T01:30:01;7;3;
69123;PMS5003;56232;53.384;-2.732;2023-11-19T01:32:27;7;5;
69123;PMS5003;56232;53.384;-2.732;2023-11-19T01:34:52;6;5;
69123;PMS5003;56232;53.384;-2.732;2023-11-19T01:37:18;6;4;
69123;PMS5003;56232;53.384;-2.732;2023-11-19T01:39:43;8;5;
69123;PMS5003;56232;53.384;-2.732;2023-11-19T01:42:08;7;5;
69123;PMS5003;56232;53.384;-2.732;2023-11-19T01:44:34;4;3;
69123;PMS5003;56232;53.384;-2.732;2023-11-19T01:47:00;5;4;
69123;PMS5003;56232;53.384;-2.732;2023-11-19T01:49:25;6;5;
69123;PMS5003;56232;53.384;-2.732;2023-11-19T01:51:50;8;4;
69123;PMS5003;56232;53.384;-2.732;2023-11-19T01:54:16;3;2;
69123;PMS5003;56232;53.384;-2.732;2023-11-19T01:56:41;7;5;
69123;PMS5003;56232;53.384;-2.732;2023-11-19T01:59:07;3;2;
69123;PMS5003;56232;53.384;-2.732;2023-11-19T02:01:32;7;3;
69123;PMS5003;56232;53.384;-2.732;2023-11-19T02:03:58;6;5;
69123;PMS5003;56232;53.384;-2.732;2023-11-19T02:06:24;9;5;
69123;PMS5003;56232;53.384;-2.732;2023-11-19T02:08:48;5;3;
69123;PMS5003;56232;53.384;-2.732;2023-11-19T02:11:14;3;3;
69123;PMS5003;56232;53.384;-2.732;2023-11-19T02:13:39;5;1;
69123;PMS5003;56232;53.384;-2.732;2023-11-19T02:16:05;4;3;
69123;PMS5003;56232;53.384;-2.732;2023-11-19T02:18:30;4;3;
69123;PMS5003;56232;53.384;-2.732;2023-11-19T02:20:55;5;4;
69123;PMS5003;56232;53.384;-2.732;2023-11-19T02:23:21;5;4;
69123;PMS5003;56232;53.384;-2.732;2023-11-19T02:25:47;8;5;
69123;PMS5003;56232;53.384;-2.732;2023-11-19T02:28:12;12;7;
69123;PMS5003;56232;53.384;-2.732;2023-11-19T02:30:37;3;3;
69123;PMS5003;56232;53.384;-2.732;2023-11-19T02:33:03;6;5;
69123;PMS5003;56232;53.384;-2.732;2023-11-19T02:35:28;5;3;
69123;PMS5003;56232;53.384;-2.732;2023-11-19T02:37:54;6;5;
69123;PMS5003;56232;53.384;-2.732;2023-11-19T02:40:19;6;4;
69123;PMS5003;56232;53.384;-2.732;2023-11-19T02:42:45;5;4;
69123;PMS5003;56232;53.384;-2.732;2023-11-19T02:45:10;3;2;
69123;PMS5003;56232;53.384;-2.732;2023-11-19T02:47:35;12;7;
69123;PMS5003;56232;53.384;-2.732;2023-11-19T02:50:01;5;4;
69123;PMS5003;56232;53.384;-2.732;2023-11-19T02:52:27;10;5;
69123;PMS5003;56232;53.384;-2.732;2023-11-19T02:54:53;9;5;
69123;PMS5003;56232;53.384;-2.732;2023-11-19T02:57:18;5;5;
69123;PMS5003;56232;53.384;-2.732;2023-11-19T02:59:44;6;5;
69123;PMS5003;56232;53.384;-2.732;2023-11-19T03:02:09;5;3;
69123;PMS5003;56232;53.384;-2.732;2023-11-19T03:04:35;3;2;
69123;PMS5003;56232;53.384;-2.732;2023-11-19T03:07:01;4;3;
69123;PMS5003;56232;53.384;-2.732;2023-11-19T03:09:26;3;2;
69123;PMS5003;56232;53.384;-2.732;2023-11-19T03:11:52;6;5;
69123;PMS5003;56232;53.384;-2.732;2023-11-19T03:14:17;2;2;
69123;PMS5003;56232;53.384;-2.732;2023-11-19T03:16:44;2;1;
69123;PMS5003;56232;53.384;-2.732;2023-11-19T03:19:08;6;5;
69123;PMS5003;56232;53.384;-2.732;2023-11-19T03:21:34;6;4;
69123;PMS5003;56232;53.384;-2.732;2023-11-19T03:24:00;5;4;
69123;PMS5003;56232;53.384;-2.732;2023-11-19T03:26:26;4;2;
69123;PMS5003;56232;53.384;-2.732;2023-11-19T03:28:51;5;4;
69123;PMS5003;56232;53.384;-2.732;2023-11-19T03:31:16;2;2;
69123;PMS5003;56232;53.384;-2.732;2023-11-19T03:33:42;3;3;
69123;PMS5003;56232;53.384;-2.732;2023-11-19T03:36:08;10;4;
69123;PMS5003;56232;53.384;-2.732;2023-11-19T03:38:33;9;3;
69123;PMS5003;56232;53.384;-2.732;2023-11-19T03:40:59;4;2;
69123;PMS5003;56232;53.384;-2.732;2023-11-19T03:43:24;3;2;
69123;PMS5003;56232;53.384;-2.732;2023-11-19T03:45:50;5;4;
69123;PMS5003;56232;53.384;-2.732;2023-11-19T03:48:15;6;3;
69123;PMS5003;56232;53.384;-2.732;2023-11-19T03:50:41;4;4;
69123;PMS5003;56232;53.384;-2.732;2023-11-19T03:53:07;4;4;
69123;PMS5003;56232;53.384;-2.732;2023-11-19T03:55:33;4;3;
69123;PMS5003;56232;53.384;-2.732;2023-11-19T03:57:58;4;2;
69123;PMS5003;56232;53.384;-2.732;2023-11-19T04:00:23;4;3;
69123;PMS5003;56232;53.384;-2.732;2023-11-19T04:02:49;8;6;
69123;PMS5003;56232;53.384;-2.732;2023-11-19T04:05:14;3;2;
69123;PMS5003;56232;53.384;-2.732;2023-11-19T04:07:40;8;4;
69123;PMS5003;56232;53.384;-2.732;2023-11-19T04:10:05;6;5;
69123;PMS5003;56232;53.384;-2.732;2023-11-19T04:12:31;5;4;
69123;PMS5003;56232;53.384;-2.732;2023-11-19T04:14:56;14;7;
69123;PMS5003;56232;53.384;-2.732;2023-11-19T04:17:21;7;4;
69123;PMS5003;56232;53.384;-2.732;2023-11-19T04:19:47;6;3;
69123;PMS5003;56232;53.384;-2.732;2023-11-19T04:22:13;6;4;
69123;PMS5003;56232;53.384;-2.732;2023-11-19T04:24:38;6;4;
69123;PMS5003;56232;53.384;-2.732;2023-11-19T04:27:04;3;2;
69123;PMS5003;56232;53.384;-2.732;2023-11-19T04:29:29;3;3;
69123;PMS5003;56232;53.384;-2.732;2023-11-19T04:31:55;2;0;
69123;PMS5003;56232;53.384;-2.732;2023-11-19T04:34:20;9;5;
69123;PMS5003;56232;53.384;-2.732;2023-11-19T04:36:46;4;4;
69123;PMS5003;56232;53.384;-2.732;2023-11-19T04:39:11;11;5;
69123;PMS5003;56232;53.384;-2.732;2023-11-19T04:44:03;5;3;
69123;PMS5003;56232;53.384;-2.732;2023-11-19T04:46:28;4;2;
69123;PMS5003;56232;53.384;-2.732;2023-11-19T04:48:54;4;3;
69123;PMS5003;56232;53.384;-2.732;2023-11-19T04:51:19;4;3;
69123;PMS5003;56232;53.384;-2.732;2023-11-19T04:53:45;4;2;
69123;PMS5003;56232;53.384;-2.732;2023-11-19T04:56:11;7;4;
69123;PMS5003;56232;53.384;-2.732;2023-11-19T04:58:36;5;4;
69123;PMS5003;56232;53.384;-2.732;2023-11-19T05:01:01;4;3;
69123;PMS5003;56232;53.384;-2.732;2023-11-19T05:03:27;3;3;
69123;PMS5003;56232;53.384;-2.732;2023-11-19T05:05:52;4;4;
69123;PMS5003;56232;53.384;-2.732;2023-11-19T05:08:18;4;3;
69123;PMS5003;56232;53.384;-2.732;2023-11-19T05:10:44;1;1;
69123;PMS5003;56232;53.384;-2.732;2023-11-19T05:13:09;2;2;
69123;PMS5003;56232;53.384;-2.732;2023-11-19T05:15:35;4;2;
69123;PMS5003;56232;53.384;-2.732;2023-11-19T05:18:01;7;7;
69123;PMS5003;56232;53.384;-2.732;2023-11-19T05:20:26;3;2;
69123;PMS5003;56232;53.384;-2.732;2023-11-19T05:22:51;13;6;
69123;PMS5003;56232;53.384;-2.732;2023-11-19T05:25:17;7;3;
69123;PMS5003;56232;53.384;-2.732;2023-11-19T05:27:42;4;3;
69123;PMS5003;56232;53.384;-2.732;2023-11-19T05:30:08;2;2;
69123;PMS5003;56232;53.384;-2.732;2023-11-19T05:32:34;5;3;
69123;PMS5003;56232;53.384;-2.732;2023-11-19T05:34:59;3;2;
69123;PMS5003;56232;53.384;-2.732;2023-11-19T05:37:25;4;3;
69123;PMS5003;56232;53.384;-2.732;2023-11-19T05:39:50;6;4;
69123;PMS5003;56232;53.384;-2.732;2023-11-19T05:42:16;7;3;
69123;PMS5003;56232;53.384;-2.732;2023-11-19T05:44:42;1;1;
69123;PMS5003;56232;53.384;-2.732;2023-11-19T05:47:07;2;2;
69123;PMS5003;56232;53.384;-2.732;2023-11-19T05:49:33;4;3;
69123;PMS5003;56232;53.384;-2.732;2023-11-19T05:51:59;4;3;
69123;PMS5003;56232;53.384;-2.732;2023-11-19T05:54:29;3;2;
69123;PMS5003;56232;53.384;-2.732;2023-11-19T05:56:49;3;3;
69123;PMS5003;56232;53.384;-2.732;2023-11-19T05:59:15;2;1;
69123;PMS5003;56232;53.384;-2.732;2023-11-19T06:01:40;4;3;
69123;PMS5003;56232;53.384;-2.732;2023-11-19T06:04:06;2;1;
69123;PMS5003;56232;53.384;-2.732;2023-11-19T06:06:32;7;3;
69123;PMS5003;56232;53.384;-2.732;2023-11-19T06:08:57;5;4;
69123;PMS5003;56232;53.384;-2.732;2023-11-19T06:11:23;6;4;
69123;PMS5003;56232;53.384;-2.732;2023-11-19T06:13:48;4;4;
69123;PMS5003;56232;53.384;-2.732;2023-11-19T06:16:14;3;3;
69123;PMS5003;56232;53.384;-2.732;2023-11-19T06:18:40;3;3;
69123;PMS5003;56232;53.384;-2.732;2023-11-19T06:21:05;3;2;
69123;PMS5003;56232;53.384;-2.732;2023-11-19T06:23:30;4;1;
69123;PMS5003;56232;53.384;-2.732;2023-11-19T06:25:56;5;4;
69123;PMS5003;56232;53.384;-2.732;2023-11-19T06:28:21;5;4;
69123;PMS5003;56232;53.384;-2.732;2023-11-19T06:30:47;1;0;
69123;PMS5003;56232;53.384;-2.732;2023-11-19T06:33:13;5;4;
69123;PMS5003;56232;53.384;-2.732;2023-11-19T06:35:38;10;5;
69123;PMS5003;56232;53.384;-2.732;2023-11-19T06:38:04;2;2;
69123;PMS5003;56232;53.384;-2.732;2023-11-19T06:40:29;2;2;
69123;PMS5003;56232;53.384;-2.732;2023-11-19T06:42:55;4;3;
69123;PMS5003;56232;53.384;-2.732;2023-11-19T06:45:20;3;3;
69123;PMS5003;56232;53.384;-2.732;2023-11-19T06:47:46;4;2;
69123;PMS5003;56232;53.384;-2.732;2023-11-19T06:50:12;3;2;
69123;PMS5003;56232;53.384;-2.732;2023-11-19T06:52:37;2;2;
69123;PMS5003;56232;53.384;-2.732;2023-11-19T06:55:03;3;2;
69123;PMS5003;56232;53.384;-2.732;2023-11-19T06:57:29;3;3;
69123;PMS5003;56232;53.384;-2.732;2023-11-19T06:59:54;3;3;
69123;PMS5003;56232;53.384;-2.732;2023-11-19T07:02:20;7;4;
69123;PMS5003;56232;53.384;-2.732;2023-11-19T07:04:45;5;3;
69123;PMS5003;56232;53.384;-2.732;2023-11-19T07:07:10;2;1;
69123;PMS5003;56232;53.384;-2.732;2023-11-19T07:09:36;1;0;
69123;PMS5003;56232;53.384;-2.732;2023-11-19T07:12:02;3;2;
69123;PMS5003;56232;53.384;-2.732;2023-11-19T07:14:27;2;1;
69123;PMS5003;56232;53.384;-2.732;2023-11-19T07:16:52;3;2;
69123;PMS5003;56232;53.384;-2.732;2023-11-19T07:19:18;2;1;
69123;PMS5003;56232;53.384;-2.732;2023-11-19T07:21:43;3;2;
69123;PMS5003;56232;53.384;-2.732;2023-11-19T07:24:09;3;2;
69123;PMS5003;56232;53.384;-2.732;2023-11-19T07:26:35;4;2;
69123;PMS5003;56232;53.384;-2.732;2023-11-19T07:29:00;5;3;
69123;PMS5003;56232;53.384;-2.732;2023-11-19T07:31:25;3;3;
69123;PMS5003;56232;53.384;-2.732;2023-11-19T07:33:51;5;2;
69123;PMS5003;56232;53.384;-2.732;2023-11-19T07:36:17;2;2;
69123;PMS5003;56232;53.384;-2.732;2023-11-19T07:38:42;2;1;
69123;PMS5003;56232;53.384;-2.732;2023-11-19T07:41:08;3;1;
69123;PMS5003;56232;53.384;-2.732;2023-11-19T07:43:34;5;5;
69123;PMS5003;56232;53.384;-2.732;2023-11-19T07:45:59;2;1;
69123;PMS5003;56232;53.384;-2.732;2023-11-19T07:48:24;4;3;
69123;PMS5003;56232;53.384;-2.732;2023-11-19T07:50:50;3;2;
69123;PMS5003;56232;53.384;-2.732;2023-11-19T07:53:16;4;1;
69123;PMS5003;56232;53.384;-2.732;2023-11-19T07:55:41;2;1;
69123;PMS5003;56232;53.384;-2.732;2023-11-19T07:58:07;2;2;
69123;PMS5003;56232;53.384;-2.732;2023-11-19T08:00:33;3;1;
69123;PMS5003;56232;53.384;-2.732;2023-11-19T08:02:58;5;3;
69123;PMS5003;56232;53.384;-2.732;2023-11-19T08:05:24;7;3;
69123;PMS5003;56232;53.384;-2.732;2023-11-19T08:07:49;5;3;
69123;PMS5003;56232;53.384;-2.732;2023-11-19T08:10:15;3;2;
69123;PMS5003;56232;53.384;-2.732;2023-11-19T08:12:40;7;5;
69123;PMS5003;56232;53.384;-2.732;2023-11-19T08:15:06;2;2;
69123;PMS5003;56232;53.384;-2.732;2023-11-19T08:17:31;3;2;
69123;PMS5003;56232;53.384;-2.732;2023-11-19T08:19:57;4;3;
69123;PMS5003;56232;53.384;-2.732;2023-11-19T08:22:22;3;3;
69123;PMS5003;56232;53.384;-2.732;2023-11-19T08:24:48;3;1;
69123;PMS5003;56232;53.384;-2.732;2023-11-19T08:27:13;2;2;
69123;PMS5003;56232;53.384;-2.732;2023-11-19T08:29:39;5;3;
69123;PMS5003;56232;53.384;-2.732;2023-11-19T08:32:05;4;3;
69123;PMS5003;56232;53.384;-2.732;2023-11-19T08:34:30;2;1;
69123;PMS5003;56232;53.384;-2.732;2023-11-19T08:36:55;3;2;
69123;PMS5003;56232;53.384;-2.732;2023-11-19T08:39:21;2;2;
69123;PMS5003;56232;53.384;-2.732;2023-11-19T08:41:46;2;2;
69123;PMS5003;56232;53.384;-2.732;2023-11-19T08:44:12;3;2;
69123;PMS5003;56232;53.384;-2.732;2023-11-19T08:46:37;3;2;
69123;PMS5003;56232;53.384;-2.732;2023-11-19T08:49:03;3;3;
69123;PMS5003;56232;53.384;-2.732;2023-11-19T08:51:28;3;1;
69123;PMS5003;56232;53.384;-2.732;2023-11-19T08:53:53;4;1;
69123;PMS5003;56232;53.384;-2.732;2023-11-19T08:56:19;2;2;
69123;PMS5003;56232;53.384;-2.732;2023-11-19T08:58:45;2;1;
69123;PMS5003;56232;53.384;-2.732;2023-11-19T09:01:10;2;1;
69123;PMS5003;56232;53.384;-2.732;2023-11-19T09:03:36;5;2;
69123;PMS5003;56232;53.384;-2.732;2023-11-19T09:06:02;2;1;
69123;PMS5003;56232;53.384;-2.732;2023-11-19T09:08:27;3;2;
69123;PMS5003;56232;53.384;-2.732;2023-11-19T09:10:53;3;2;
69123;PMS5003;56232;53.384;-2.732;2023-11-19T09:13:18;3;1;
69123;PMS5003;56232;53.384;-2.732;2023-11-19T09:15:44;3;2;
69123;PMS5003;56232;53.384;-2.732;2023-11-19T09:18:10;2;1;
69123;PMS5003;56232;53.384;-2.732;2023-11-19T09:20:35;3;3;
69123;PMS5003;56232;53.384;-2.732;2023-11-19T09:23:01;4;4;
69123;PMS5003;56232;53.384;-2.732;2023-11-19T09:25:26;4;3;
69123;PMS5003;56232;53.384;-2.732;2023-11-19T09:27:52;3;2;
69123;PMS5003;56232;53.384;-2.732;2023-11-19T09:30:17;3;3;
69123;PMS5003;56232;53.384;-2.732;2023-11-19T09:32:43;6;4;
69123;PMS5003;56232;53.384;-2.732;2023-11-19T09:35:08;4;3;
69123;PMS5003;56232;53.384;-2.732;2023-11-19T09:37:35;4;3;
69123;PMS5003;56232;53.384;-2.732;2023-11-19T09:40:00;4;2;
69123;PMS5003;56232;53.384;-2.732;2023-11-19T09:42:25;1;1;
69123;PMS5003;56232;53.384;-2.732;2023-11-19T09:44:51;4;3;
69123;PMS5003;56232;53.384;-2.732;2023-11-19T09:47:16;4;3;
69123;PMS5003;56232;53.384;-2.732;2023-11-19T09:49:42;2;1;
69123;PMS5003;56232;53.384;-2.732;2023-11-19T09:52:08;2;1;
69123;PMS5003;56232;53.384;-2.732;2023-11-19T09:54:34;2;2;
69123;PMS5003;56232;53.384;-2.732;2023-11-19T09:56:59;1;1;
69123;PMS5003;56232;53.384;-2.732;2023-11-19T09:59:25;2;1;
69123;PMS5003;56232;53.384;-2.732;2023-11-19T10:01:50;3;2;
69123;PMS5003;56232;53.384;-2.732;2023-11-19T10:04:16;3;2;
69123;PMS5003;56232;53.384;-2.732;2023-11-19T10:06:41;2;2;
69123;PMS5003;56232;53.384;-2.732;2023-11-19T10:09:07;2;2;
69123;PMS5003;56232;53.384;-2.732;2023-11-19T10:11:33;0;0;
69123;PMS5003;56232;53.384;-2.732;2023-11-19T10:13:58;2;1;
69123;PMS5003;56232;53.384;-2.732;2023-11-19T10:16:28;3;2;
69123;PMS5003;56232;53.384;-2.732;2023-11-19T10:18:49;3;3;
69123;PMS5003;56232;53.384;-2.732;2023-11-19T10:21:15;0;0;
69123;PMS5003;56232;53.384;-2.732;2023-11-19T10:26:06;1;1;
69123;PMS5003;56232;53.384;-2.732;2023-11-19T10:30:57;2;2;
69123;PMS5003;56232;53.384;-2.732;2023-11-19T10:33:23;2;2;
69123;PMS5003;56232;53.384;-2.732;2023-11-19T10:35:52;1;1;
69123;PMS5003;56232;53.384;-2.732;2023-11-19T10:38:14;2;1;
69123;PMS5003;56232;53.384;-2.732;2023-11-19T10:40:40;2;2;
69123;PMS5003;56232;53.384;-2.732;2023-11-19T10:43:05;2;2;
69123;PMS5003;56232;53.384;-2.732;2023-11-19T10:45:31;3;2;
69123;PMS5003;56232;53.384;-2.732;2023-11-19T10:47:57;2;2;
69123;PMS5003;56232;53.384;-2.732;2023-11-19T10:50:27;1;1;
69123;PMS5003;56232;53.384;-2.732;2023-11-19T10:52:48;1;1;
69123;PMS5003;56232;53.384;-2.732;2023-11-19T10:55:13;1;1;
69123;PMS5003;56232;53.384;-2.732;2023-11-19T10:57:39;1;1;
69123;PMS5003;56232;53.384;-2.732;2023-11-19T11:00:05;1;1;
69123;PMS5003;56232;53.384;-2.732;2023-11-19T11:02:30;2;2;
69123;PMS5003;56232;53.384;-2.732;2023-11-19T11:04:56;3;3;
69123;PMS5003;56232;53.384;-2.732;2023-11-19T11:07:21;2;2;
69123;PMS5003;56232;53.384;-2.732;2023-11-19T11:09:47;1;1;
69123;PMS5003;56232;53.384;-2.732;2023-11-19T11:12:13;2;1;
69123;PMS5003;56232;53.384;-2.732;2023-11-19T11:14:38;0;0;
69123;PMS5003;56232;53.384;-2.732;2023-11-19T11:17:04;1;1;
69123;PMS5003;56232;53.384;-2.732;2023-11-19T11:19:29;0;0;
69123;PMS5003;56232;53.384;-2.732;2023-11-19T11:21:55;2;0;
69123;PMS5003;56232;53.384;-2.732;2023-11-19T11:26:52;2;1;
69123;PMS5003;56232;53.384;-2.732;2023-11-19T11:29:14;2;2;
69123;PMS5003;56232;53.384;-2.732;2023-11-19T11:31:39;1;1;
69123;PMS5003;56232;53.384;-2.732;2023-11-19T11:34:07;1;1;
69123;PMS5003;56232;53.384;-2.732;2023-11-19T11:36:28;2;2;
69123;PMS5003;56232;53.384;-2.732;2023-11-19T11:38:54;0;0;
69123;PMS5003;56232;53.384;-2.732;2023-11-19T11:41:20;1;1;
69123;PMS5003;56232;53.384;-2.732;2023-11-19T11:43:45;0;0;
69123;PMS5003;56232;53.384;-2.732;2023-11-19T11:48:36;0;0;
69123;PMS5003;56232;53.384;-2.732;2023-11-19T11:51:02;1;0;
69123;PMS5003;56232;53.384;-2.732;2023-11-19T11:53:27;0;0;
69123;PMS5003;56232;53.384;-2.732;2023-11-19T11:55:54;1;1;
69123;PMS5003;56232;53.384;-2.732;2023-11-19T11:58:19;1;1;
69123;PMS5003;56232;53.384;-2.732;2023-11-19T12:00:44;0;0;
69123;PMS5003;56232;53.384;-2.732;2023-11-19T12:03:11;1;1;
69123;PMS5003;56232;53.384;-2.732;2023-11-19T12:05:38;0;0;
69123;PMS5003;56232;53.384;-2.732;2023-11-19T12:08:01;1;1;
69123;PMS5003;56232;53.384;-2.732;2023-11-19T12:10:28;2;2;
69123;PMS5003;56232;53.384;-2.732;2023-11-19T12:12:52;2;1;
69123;PMS5003;56232;53.384;-2.732;2023-11-19T12:15:18;0;0;
69123;PMS5003;56232;53.384;-2.732;2023-11-19T12:17:46;1;1;
69123;PMS5003;56232;53.384;-2.732;2023-11-19T12:20:09;2;1;
69123;PMS5003;56232;53.384;-2.732;2023-11-19T12:22:35;4;3;
69123;PMS5003;56232;53.384;-2.732;2023-11-19T12:25:00;3;1;
69123;PMS5003;56232;53.384;-2.732;2023-11-19T12:27:26;0;0;
69123;PMS5003;56232;53.384;-2.732;2023-11-19T12:29:51;1;1;
69123;PMS5003;56232;53.384;-2.732;2023-11-19T12:32:17;1;1;
69123;PMS5003;56232;53.384;-2.732;2023-11-19T12:34:42;2;2;
69123;PMS5003;56232;53.384;-2.732;2023-11-19T12:37:08;2;2;
69123;PMS5003;56232;53.384;-2.732;2023-11-19T12:39:34;0;0;
69123;PMS5003;56232;53.384;-2.732;2023-11-19T12:41:59;0;0;
69123;PMS5003;56232;53.384;-2.732;2023-11-19T12:44:25;2;1;
69123;PMS5003;56232;53.384;-2.732;2023-11-19T12:49:16;1;1;
69123;PMS5003;56232;53.384;-2.732;2023-11-19T12:51:42;1;1;
69123;PMS5003;56232;53.384;-2.732;2023-11-19T12:54:07;2;1;
69123;PMS5003;56232;53.384;-2.732;2023-11-19T12:56:33;1;1;
69123;PMS5003;56232;53.384;-2.732;2023-11-19T12:59:01;1;1;
69123;PMS5003;56232;53.384;-2.732;2023-11-19T13:01:24;1;0;
69123;PMS5003;56232;53.384;-2.732;2023-11-19T13:03:49;3;1;
69123;PMS5003;56232;53.384;-2.732;2023-11-19T13:06:15;0;0;
69123;PMS5003;56232;53.384;-2.732;2023-11-19T13:08:41;1;1;
69123;PMS5003;56232;53.384;-2.732;2023-11-19T13:11:06;1;1;
69123;PMS5003;56232;53.384;-2.732;2023-11-19T13:13:32;2;1;
69123;PMS5003;56232;53.384;-2.732;2023-11-19T13:16:01;0;0;
69123;PMS5003;56232;53.384;-2.732;2023-11-19T13:18:23;1;0;
69123;PMS5003;56232;53.384;-2.732;2023-11-19T13:20:48;1;0;
69123;PMS5003;56232;53.384;-2.732;2023-11-19T13:23:14;1;1;
69123;PMS5003;56232;53.384;-2.732;2023-11-19T13:25:40;1;1;
69123;PMS5003;56232;53.384;-2.732;2023-11-19T13:28:05;1;1;
69123;PMS5003;56232;53.384;-2.732;2023-11-19T13:30:30;1;1;
69123;PMS5003;56232;53.384;-2.732;2023-11-19T13:32:56;2;2;
69123;PMS5003;56232;53.384;-2.732;2023-11-19T13:35:22;2;1;
69123;PMS5003;56232;53.384;-2.732;2023-11-19T13:37:47;0;0;
69123;PMS5003;56232;53.384;-2.732;2023-11-19T13:40:13;0;0;
69123;PMS5003;56232;53.384;-2.732;2023-11-19T13:42:39;2;1;
69123;PMS5003;56232;53.384;-2.732;2023-11-19T13:45:04;2;1;
69123;PMS5003;56232;53.384;-2.732;2023-11-19T13:47:30;0;0;
69123;PMS5003;56232;53.384;-2.732;2023-11-19T13:49:55;1;1;
69123;PMS5003;56232;53.384;-2.732;2023-11-19T13:52:21;0;0;
69123;PMS5003;56232;53.384;-2.732;2023-11-19T13:54:46;1;0;
69123;PMS5003;56232;53.384;-2.732;2023-11-19T13:57:12;0;0;
69123;PMS5003;56232;53.384;-2.732;2023-11-19T13:59:39;5;2;
69123;PMS5003;56232;53.384;-2.732;2023-11-19T14:02:03;2;1;
69123;PMS5003;56232;53.384;-2.732;2023-11-19T14:04:29;0;0;
69123;PMS5003;56232;53.384;-2.732;2023-11-19T14:06:54;0;0;
69123;PMS5003;56232;53.384;-2.732;2023-11-19T14:09:20;0;0;
69123;PMS5003;56232;53.384;-2.732;2023-11-19T14:11:45;1;1;
69123;PMS5003;56232;53.384;-2.732;2023-11-19T14:14:11;0;0;
69123;PMS5003;56232;53.384;-2.732;2023-11-19T14:16:37;0;0;
69123;PMS5003;56232;53.384;-2.732;2023-11-19T14:19:02;0;0;
69123;PMS5003;56232;53.384;-2.732;2023-11-19T14:21:28;0;0;
69123;PMS5003;56232;53.384;-2.732;2023-11-19T14:23:53;0;0;
69123;PMS5003;56232;53.384;-2.732;2023-11-19T14:26:19;2;2;
69123;PMS5003;56232;53.384;-2.732;2023-11-19T14:28:45;0;0;
69123;PMS5003;56232;53.384;-2.732;2023-11-19T14:31:10;0;0;
69123;PMS5003;56232;53.384;-2.732;2023-11-19T14:33:36;0;0;
69123;PMS5003;56232;53.384;-2.732;2023-11-19T14:36:01;2;1;
69123;PMS5003;56232;53.384;-2.732;2023-11-19T14:38:27;1;0;
69123;PMS5003;56232;53.384;-2.732;2023-11-19T14:40:53;1;1;
69123;PMS5003;56232;53.384;-2.732;2023-11-19T14:43:18;0;0;
69123;PMS5003;56232;53.384;-2.732;2023-11-19T14:45:44;1;1;
69123;PMS5003;56232;53.384;-2.732;2023-11-19T14:48:09;1;0;
69123;PMS5003;56232;53.384;-2.732;2023-11-19T14:50:35;1;1;
69123;PMS5003;56232;53.384;-2.732;2023-11-19T14:53:01;0;0;
69123;PMS5003;56232;53.384;-2.732;2023-11-19T14:55:26;0;0;
69123;PMS5003;56232;53.384;-2.732;2023-11-19T14:57:52;0;0;
69123;PMS5003;56232;53.384;-2.732;2023-11-19T15:00:18;0;0;
69123;PMS5003;56232;53.384;-2.732;2023-11-19T15:02:43;1;1;
69123;PMS5003;56232;53.384;-2.732;2023-11-19T15:05:09;0;0;
69123;PMS5003;56232;53.384;-2.732;2023-11-19T15:07:35;0;0;
69123;PMS5003;56232;53.384;-2.732;2023-11-19T15:10:00;1;1;
69123;PMS5003;56232;53.384;-2.732;2023-11-19T15:12:25;1;0;
69123;PMS5003;56232;53.384;-2.732;2023-11-19T15:14:51;0;0;
69123;PMS5003;56232;53.384;-2.732;2023-11-19T15:17:17;0;0;
69123;PMS5003;56232;53.384;-2.732;2023-11-19T15:19:42;0;0;
69123;PMS5003;56232;53.384;-2.732;2023-11-19T15:22:08;0;0;
69123;PMS5003;56232;53.384;-2.732;2023-11-19T15:24:34;0;0;
69123;PMS5003;56232;53.384;-2.732;2023-11-19T15:26:59;2;2;
69123;PMS5003;56232;53.384;-2.732;2023-11-19T15:29:25;0;0;
69123;PMS5003;56232;53.384;-2.732;2023-11-19T15:31:50;1;0;
69123;PMS5003;56232;53.384;-2.732;2023-11-19T15:34:16;1;1;
69123;PMS5003;56232;53.384;-2.732;2023-11-19T15:36:42;1;1;
69123;PMS5003;56232;53.384;-2.732;2023-11-19T15:39:07;1;1;
69123;PMS5003;56232;53.384;-2.732;2023-11-19T15:41:33;1;1;
69123;PMS5003;56232;53.384;-2.732;2023-11-19T15:43:58;1;1;
69123;PMS5003;56232;53.384;-2.732;2023-11-19T15:46:24;2;2;
69123;PMS5003;56232;53.384;-2.732;2023-11-19T15:48:49;1;1;
69123;PMS5003;56232;53.384;-2.732;2023-11-19T15:51:15;0;0;
69123;PMS5003;56232;53.384;-2.732;2023-11-19T15:53:40;1;1;
69123;PMS5003;56232;53.384;-2.732;2023-11-19T15:56:06;2;1;
69123;PMS5003;56232;53.384;-2.732;2023-11-19T15:58:32;1;1;
69123;PMS5003;56232;53.384;-2.732;2023-11-19T16:00:57;1;1;
69123;PMS5003;56232;53.384;-2.732;2023-11-19T16:03:23;1;0;
69123;PMS5003;56232;53.384;-2.732;2023-11-19T16:05:49;0;0;
69123;PMS5003;56232;53.384;-2.732;2023-11-19T16:08:14;5;2;
69123;PMS5003;56232;53.384;-2.732;2023-11-19T16:10:39;1;1;
69123;PMS5003;56232;53.384;-2.732;2023-11-19T16:13:05;1;1;
69123;PMS5003;56232;53.384;-2.732;2023-11-19T16:15:31;0;0;
69123;PMS5003;56232;53.384;-2.732;2023-11-19T16:17:56;1;0;
69123;PMS5003;56232;53.384;-2.732;2023-11-19T16:20:22;2;2;
69123;PMS5003;56232;53.384;-2.732;2023-11-19T16:22:48;1;1;
69123;PMS5003;56232;53.384;-2.732;2023-11-19T16:25:13;1;1;
69123;PMS5003;56232;53.384;-2.732;2023-11-19T16:27:39;1;1;
69123;PMS5003;56232;53.384;-2.732;2023-11-19T16:30:05;2;1;
69123;PMS5003;56232;53.384;-2.732;2023-11-19T16:32:30;1;1;
69123;PMS5003;56232;53.384;-2.732;2023-11-19T16:34:56;1;1;